Time;durP1;ratioP1;P1;durP2;ratioP2;P2;SDS_P1;SDS_P2;PMS_P1;PMS_P2;Temp;Humidity;BMP_temperature;BMP_pressure;BME280_temperature;BME280_humidity;BME280_pressure;Samples;Min_cycle;Max_cycle;Signal;HPM_P1;HPM_P2
2022/04/18 00:00:27;;;;;;;34.40;32.25;;;;;;;4.89;100.00;101058.81;4992397;28;20042;-90
2022/04/18 00:02:55;;;;;;;32.80;30.88;;;;;;;4.87;100.00;101069.53;4992960;28;20050;-91
2022/04/18 00:05:23;;;;;;;31.95;29.98;;;;;;;4.84;100.00;101069.81;4992848;28;20211;-91
2022/04/18 00:07:56;;;;;;;32.20;30.13;;;;;;;4.86;100.00;101059.16;4992593;28;20047;-90
2022/04/18 00:10:23;;;;;;;31.98;30.00;;;;;;;4.83;100.00;101050.56;4992450;28;20479;-90
2022/04/18 00:12:50;;;;;;;33.67;31.58;;;;;;;4.91;100.00;101039.25;4992492;28;20077;-90
2022/04/18 00:15:18;;;;;;;35.63;33.53;;;;;;;4.89;100.00;101051.75;4992326;28;20456;-91
2022/04/18 00:17:45;;;;;;;32.67;30.70;;;;;;;4.93;100.00;101063.63;4984803;28;20056;-90
2022/04/18 00:20:14;;;;;;;33.10;31.00;;;;;;;5.01;100.00;101062.81;4992875;28;20054;-90
2022/04/18 00:22:41;;;;;;;32.22;30.33;;;;;;;5.08;100.00;101060.34;4992049;28;20604;-90
2022/04/18 00:25:09;;;;;;;32.75;30.85;;;;;;;5.11;100.00;101067.91;4992172;28;20104;-90
2022/04/18 00:27:36;;;;;;;32.75;30.83;;;;;;;5.10;100.00;101066.28;4995801;28;20578;-90
2022/04/18 00:30:03;;;;;;;34.00;32.10;;;;;;;5.05;100.00;101062.34;4995736;28;20527;-90
2022/04/18 00:32:33;;;;;;;35.97;33.88;;;;;;;5.01;100.00;101063.63;4996630;28;20084;-91
2022/04/18 00:35:02;;;;;;;33.28;31.20;;;;;;;5.00;100.00;101067.25;4995847;28;20133;-90
2022/04/18 00:37:32;;;;;;;32.78;30.88;;;;;;;4.98;100.00;101052.59;4995623;28;20504;-90
2022/04/18 00:39:59;;;;;;;32.72;30.48;;;;;;;5.09;100.00;101060.19;4995838;28;20100;-90
2022/04/18 00:42:26;;;;;;;30.92;29.15;;;;;;;5.02;100.00;101044.22;4995486;28;20435;-90
2022/04/18 00:44:53;;;;;;;32.10;30.20;;;;;;;4.97;100.00;101048.31;4995890;28;20046;-89
2022/04/18 00:47:19;;;;;;;34.97;32.88;;;;;;;4.90;100.00;101039.41;4995943;28;20450;-90
2022/04/18 00:49:48;;;;;;;33.80;31.80;;;;;;;4.95;100.00;101045.03;4995711;28;20042;-90
2022/04/18 00:52:16;;;;;;;30.27;28.48;;;;;;;4.97;100.00;101046.50;4995444;28;20042;-90
2022/04/18 00:54:44;;;;;;;37.95;35.70;;;;;;;5.02;100.00;101043.38;4995662;28;20057;-90
2022/04/18 00:57:14;;;;;;;37.08;34.58;;;;;;;4.88;100.00;101046.66;4995626;28;20447;-90
2022/04/18 00:59:41;;;;;;;33.10;31.25;;;;;;;4.83;100.00;101036.59;4995146;28;20046;-90
2022/04/18 01:02:13;;;;;;;36.72;34.63;;;;;;;4.95;100.00;101037.13;4995482;28;20050;-91
2022/04/18 01:04:39;;;;;;;37.05;34.85;;;;;;;4.93;100.00;101037.31;4995524;28;20050;-90
2022/04/18 01:07:09;;;;;;;35.58;33.47;;;;;;;4.89;100.00;101038.59;4995687;28;20050;-90
2022/04/18 01:09:41;;;;;;;33.20;31.20;;;;;;;4.73;100.00;101025.41;4995060;28;20133;-90
2022/04/18 01:12:09;;;;;;;38.55;36.05;;;;;;;4.71;100.00;101037.88;4994963;28;20050;-90
2022/04/18 01:14:36;;;;;;;32.83;30.65;;;;;;;4.66;100.00;101034.88;4995293;28;20058;-91
2022/04/18 01:17:03;;;;;;;30.45;28.50;;;;;;;4.57;100.00;101040.16;4995862;28;20042;-90
2022/04/18 01:19:30;;;;;;;33.25;31.25;;;;;;;4.86;100.00;101038.91;4995406;28;20042;-90
2022/04/18 01:21:59;;;;;;;35.53;33.30;;;;;;;4.99;100.00;101033.16;4995051;28;20102;-90
2022/04/18 01:30:00;;;;;;;37.63;35.42;;;;;;;5.01;100.00;101032.03;4995185;28;20041;-89
2022/04/18 01:32:32;;;;;;;35.95;33.60;;;;;;;4.95;100.00;101034.50;4995522;28;20051;-90
2022/04/18 01:35:00;;;;;;;34.55;32.50;;;;;;;4.87;100.00;101024.78;4995077;28;20136;-90
2022/04/18 01:37:28;;;;;;;33.47;31.38;;;;;;;4.93;100.00;101008.34;4994377;28;20038;-89
2022/04/18 01:39:55;;;;;;;32.72;30.63;;;;;;;5.02;100.00;101015.28;4995005;28;20061;-90
2022/04/18 01:42:22;;;;;;;32.75;30.90;;;;;;;4.96;100.00;101015.06;4994385;28;20051;-90
2022/04/18 01:44:49;;;;;;;34.38;32.47;;;;;;;4.85;100.00;101015.41;4995303;28;20050;-90
2022/04/18 01:47:16;;;;;;;32.42;30.52;;;;;;;4.82;100.00;101009.47;4994728;28;20057;-91
2022/04/18 01:49:43;;;;;;;30.52;28.42;;;;;;;4.97;100.00;101006.22;4994867;28;20137;-90
2022/04/18 01:52:12;;;;;;;34.97;32.70;;;;;;;4.94;100.00;101003.91;4994480;28;20046;-90
2022/04/18 01:54:46;;;;;;;36.85;34.58;;;;;;;5.01;100.00;100999.63;4994642;28;20054;-90
2022/04/18 01:57:12;;;;;;;31.85;29.95;;;;;;;4.91;100.00;100993.69;4994301;28;20050;-90
2022/04/18 01:59:42;;;;;;;35.63;33.53;;;;;;;4.98;100.00;100990.22;4995058;28;20067;-90
2022/04/18 02:02:10;;;;;;;35.70;33.53;;;;;;;5.03;100.00;100977.41;5046299;23;20525;-90
2022/04/18 02:04:37;;;;;;;35.00;32.83;;;;;;;5.07;100.00;100985.00;4926357;29;20051;-90
2022/04/18 02:07:08;;;;;;;41.83;39.33;;;;;;;5.03;100.00;100979.22;4914757;29;20039;-90
2022/04/18 02:09:37;;;;;;;38.78;36.55;;;;;;;4.99;100.00;100972.63;4927106;29;20111;-90
2022/04/18 02:12:08;;;;;;;35.70;33.60;;;;;;;4.92;100.00;100975.09;4926573;29;20480;-90
2022/04/18 02:14:37;;;;;;;39.08;36.78;;;;;;;4.95;100.00;100973.94;4922364;29;20060;-89
2022/04/18 02:17:06;;;;;;;42.20;39.72;;;;;;;4.89;100.00;100971.97;4927894;29;20048;-90
2022/04/18 02:19:32;;;;;;;44.20;41.60;;;;;;;4.83;100.00;100973.44;4932743;29;20123;-90
2022/04/18 02:22:00;;;;;;;39.45;37.15;;;;;;;4.89;100.00;100978.03;4924080;29;20044;-90
2022/04/18 02:24:31;;;;;;;40.05;37.50;;;;;;;5.01;100.00;100975.94;4923927;29;20052;-90
2022/04/18 02:27:20;;;;;;;40.47;37.97;;;;;;;4.46;100.00;100966.78;4925632;29;20421;-89
2022/04/18 02:29:48;;;;;;;35.40;33.10;;;;;;;4.32;100.00;100967.38;4923172;29;20055;-90
2022/04/18 02:35:01;;;;;;;54.45;49.55;;;;;;;4.67;100.00;100960.25;4929184;29;20058;-90
2022/04/18 02:37:30;;;;;;;54.67;49.15;;;;;;;4.89;100.00;100959.63;4925731;29;20094;-89
2022/04/18 02:39:59;;;;;;;55.97;50.78;;;;;;;4.90;100.00;100958.66;4924454;29;20063;-90
2022/04/18 02:42:29;;;;;;;63.20;53.75;;;;;;;4.93;100.00;100954.84;4924816;29;20048;-90
2022/04/18 02:47:37;;;;;;;59.10;53.22;;;;;;;4.53;100.00;100962.50;4923914;29;20062;-90
2022/04/18 02:50:05;;;;;;;63.05;56.53;;;;;;;4.81;100.00;100955.19;4928239;29;20063;-90
2022/04/18 02:52:32;;;;;;;58.03;52.20;;;;;;;5.01;100.00;100960.94;4924738;29;20066;-90
2022/04/18 02:55:02;;;;;;;60.25;54.45;;;;;;;4.99;100.00;100951.56;4927165;29;20055;-90
2022/04/18 02:57:33;;;;;;;67.15;61.05;;;;;;;4.97;100.00;100945.66;4915616;29;20134;-90
2022/04/18 03:00:01;;;;;;;64.85;59.55;;;;;;;4.91;100.00;100951.56;4901310;29;20522;-91
2022/04/18 03:02:31;;;;;;;64.00;58.63;;;;;;;5.00;100.00;100958.50;4933148;29;20063;-90
2022/04/18 03:05:01;;;;;;;72.75;66.80;;;;;;;5.07;100.00;100956.84;4931559;29;20072;-90
2022/04/18 03:07:28;;;;;;;65.82;60.03;;;;;;;4.99;100.00;100967.34;4931376;29;20107;-91
2022/04/18 03:10:03;;;;;;;58.47;53.53;;;;;;;5.11;100.00;100960.78;4930564;29;20064;-90
2022/04/18 03:12:36;;;;;;;60.65;55.40;;;;;;;5.10;100.00;100961.78;4907945;29;20048;-90
2022/04/18 03:15:03;;;;;;;58.63;53.38;;;;;;;5.16;100.00;100962.94;4921911;29;20050;-90
2022/04/18 03:17:31;;;;;;;63.30;58.30;;;;;;;5.17;100.00;100952.22;4916578;29;20482;-90
2022/04/18 03:19:59;;;;;;;62.67;57.40;;;;;;;5.10;100.00;100951.25;4921640;29;20477;-90
2022/04/18 03:22:27;;;;;;;58.35;52.95;;;;;;;5.05;100.00;100956.19;4925054;29;20493;-90
2022/04/18 03:24:56;;;;;;;65.32;59.53;;;;;;;5.02;100.00;100965.25;4921814;29;20071;-90
2022/04/18 03:27:24;;;;;;;60.95;55.20;;;;;;;4.53;100.00;100964.31;4926521;29;20048;-89
2022/04/18 03:29:53;;;;;;;110.78;85.72;;;;;;;4.49;100.00;100965.63;4923673;29;20059;-90
2022/04/18 03:32:21;;;;;;;60.65;54.35;;;;;;;4.69;100.00;100974.06;4935109;29;20051;-90
2022/04/18 03:34:52;;;;;;;56.63;50.70;;;;;;;4.69;100.00;100981.94;4931039;29;20090;-90
2022/04/18 03:40:07;;;;;;;65.35;60.30;;;;;;;4.73;100.00;100976.22;4922260;29;20059;-90
2022/04/18 03:42:35;;;;;;;63.85;58.75;;;;;;;4.34;100.00;100984.63;4921524;29;20502;-90
2022/04/18 03:45:05;;;;;;;62.47;57.88;;;;;;;4.48;100.00;100983.22;4929428;29;20048;-90
2022/04/18 03:47:33;;;;;;;57.03;53.13;;;;;;;4.76;100.00;100983.78;4928531;29;20051;-90
2022/04/18 03:50:01;;;;;;;55.33;51.20;;;;;;;4.49;100.00;100995.38;4916465;29;20083;-90
2022/04/18 03:52:29;;;;;;;56.45;52.28;;;;;;;4.49;100.00;100997.19;4927657;29;20481;-90
2022/04/18 03:54:57;;;;;;;56.78;52.78;;;;;;;4.51;100.00;100993.44;4929056;29;20056;-90
2022/04/18 03:57:25;;;;;;;47.33;44.13;;;;;;;4.71;100.00;100993.97;4925007;29;20070;-90
2022/04/18 03:59:51;;;;;;;50.15;46.58;;;;;;;4.74;100.00;100990.19;4926091;29;20143;-90
2022/04/18 04:02:22;;;;;;;48.30;44.67;;;;;;;4.70;100.00;100994.97;4931711;29;20142;-91
2022/04/18 04:04:50;;;;;;;34.47;32.35;;;;;;;4.72;100.00;100989.53;4933131;29;20044;-90
2022/04/18 04:07:20;;;;;;;31.52;29.52;;;;;;;4.70;100.00;100986.25;4922820;29;20066;-90
2022/04/18 04:09:48;;;;;;;31.70;29.90;;;;;;;4.64;100.00;100986.88;4919239;29;20079;-90
2022/04/18 04:12:15;;;;;;;50.33;46.47;;;;;;;4.72;100.00;100990.38;4935212;29;20048;-90
2022/04/18 04:14:42;;;;;;;54.60;50.60;;;;;;;4.74;100.00;100982.28;4923583;29;20052;-91
2022/04/18 04:17:12;;;;;;;52.05;48.22;;;;;;;4.76;100.00;100988.22;4933870;29;20059;-90
2022/04/18 04:19:44;;;;;;;34.63;32.58;;;;;;;4.72;100.00;100976.34;4935121;29;20047;-90
2022/04/18 04:22:11;;;;;;;33.42;31.38;;;;;;;4.76;100.00;100988.22;4920476;29;20127;-90
2022/04/18 04:24:40;;;;;;;30.02;28.33;;;;;;;4.89;100.00;100987.75;4930416;29;20530;-89
2022/04/18 04:27:07;;;;;;;32.83;30.90;;;;;;;4.86;100.00;100986.25;4931735;29;20051;-90
2022/04/18 04:29:34;;;;;;;30.70;28.88;;;;;;;4.91;100.00;100978.72;4911152;29;20063;-90
2022/04/18 04:32:02;;;;;;;29.15;27.40;;;;;;;4.94;100.00;100969.69;4924942;29;20048;-89
2022/04/18 04:34:28;;;;;;;28.88;27.35;;;;;;;4.80;100.00;100968.50;4924462;29;20048;-90
2022/04/18 04:37:00;;;;;;;29.13;27.45;;;;;;;4.96;100.00;100978.22;4930009;29;20044;-90
2022/04/18 04:39:27;;;;;;;28.33;26.83;;;;;;;5.12;100.00;100972.16;4927893;29;20425;-90
2022/04/18 04:41:55;;;;;;;27.83;26.23;;;;;;;5.00;100.00;100967.22;4929508;29;20051;-90
2022/04/18 04:44:23;;;;;;;28.95;27.25;;;;;;;5.08;100.00;100966.38;4930738;29;20052;-90
2022/04/18 04:46:51;;;;;;;29.38;27.77;;;;;;;4.95;100.00;100956.34;4934920;29;20051;-90
2022/04/18 04:49:17;;;;;;;26.90;25.48;;;;;;;5.01;100.00;100947.78;4936120;29;20139;-90
2022/04/18 04:51:46;;;;;;;29.25;27.75;;;;;;;5.09;100.00;100952.25;4931207;29;20421;-91
2022/04/18 04:54:18;;;;;;;28.45;26.85;;;;;;;5.23;100.00;100956.00;4924213;29;20051;-89
2022/04/18 04:56:45;;;;;;;27.50;26.00;;;;;;;5.22;100.00;100952.56;4923206;29;20549;-90
2022/04/18 04:59:21;;;;;;;29.02;27.40;;;;;;;5.44;100.00;100945.78;4932014;29;20063;-90
2022/04/18 05:01:47;;;;;;;29.48;27.80;;;;;;;5.39;100.00;100942.84;4925565;29;20124;-90
2022/04/18 05:04:16;;;;;;;27.85;26.25;;;;;;;5.44;100.00;100944.97;4920567;29;20044;-90
2022/04/18 05:06:43;;;;;;;28.65;26.73;;;;;;;5.64;100.00;100942.81;4926646;29;20056;-90
2022/04/18 05:09:10;;;;;;;29.13;27.52;;;;;;;5.59;100.00;100940.66;4923169;29;20509;-90
2022/04/18 05:11:40;;;;;;;26.85;25.35;;;;;;;5.49;100.00;100942.66;4928474;29;20064;-90
2022/04/18 05:14:07;;;;;;;28.10;26.67;;;;;;;5.73;100.00;100942.63;4931206;29;20091;-91
2022/04/18 05:16:37;;;;;;;30.05;28.25;;;;;;;5.60;100.00;100936.22;4931817;29;20062;-89
2022/04/18 05:19:04;;;;;;;26.02;24.65;;;;;;;5.64;100.00;100950.72;4934305;29;20130;-89
2022/04/18 05:21:35;;;;;;;25.95;24.55;;;;;;;5.66;100.00;100943.47;4923690;29;20457;-90
2022/04/18 05:24:02;;;;;;;27.45;26.08;;;;;;;5.36;100.00;100955.53;4920667;29;20441;-89
2022/04/18 05:26:40;;;;;;;28.40;26.80;;;;;;;5.25;100.00;100944.34;4922735;29;20098;-89
2022/04/18 05:29:08;;;;;;;28.80;27.10;;;;;;;5.05;100.00;100951.75;4926493;29;20051;-90
2022/04/18 05:31:36;;;;;;;30.88;28.98;;;;;;;5.23;100.00;100948.13;4922351;29;20060;-90
2022/04/18 05:34:04;;;;;;;32.03;29.52;;;;;;;4.84;100.00;100956.66;4918484;29;20044;-90
2022/04/18 05:36:33;;;;;;;29.70;27.65;;;;;;;5.01;100.00;100955.69;4927224;29;20071;-90
2022/04/18 05:39:00;;;;;;;29.80;27.77;;;;;;;4.91;100.00;100956.84;4920790;29;20059;-90
2022/04/18 05:41:27;;;;;;;29.92;27.83;;;;;;;4.88;100.00;100954.53;4928962;29;20071;-90
2022/04/18 05:43:55;;;;;;;33.28;30.98;;;;;;;4.76;100.00;100951.38;4928181;29;20051;-90
2022/04/18 05:46:26;;;;;;;32.97;30.42;;;;;;;4.67;100.00;100949.72;4927769;29;20066;-89
2022/04/18 05:48:55;;;;;;;35.30;32.80;;;;;;;4.67;100.00;100957.63;4932140;29;20111;-90
2022/04/18 05:51:23;;;;;;;34.97;32.53;;;;;;;4.64;100.00;100950.88;4930803;29;20516;-89
2022/04/18 05:53:50;;;;;;;32.25;30.02;;;;;;;4.79;100.00;100964.22;4932637;29;20112;-89
2022/04/18 05:56:18;;;;;;;35.22;32.70;;;;;;;4.94;100.00;100957.34;4926013;29;20131;-90
2022/04/18 05:58:46;;;;;;;34.40;31.90;;;;;;;4.75;100.00;100952.34;4933512;29;20515;-90
2022/04/18 06:01:16;;;;;;;33.20;30.17;;;;;;;4.77;100.00;100959.09;4933389;28;20048;-90
2022/04/18 06:03:43;;;;;;;34.88;31.95;;;;;;;4.89;100.00;100959.63;4935429;29;20055;-90
2022/04/18 06:06:14;;;;;;;32.90;30.50;;;;;;;5.00;100.00;100959.31;4926249;29;20063;-90
2022/04/18 06:08:42;;;;;;;32.78;30.27;;;;;;;5.24;100.00;100961.13;4919606;29;20074;-90
2022/04/18 06:11:12;;;;;;;32.38;29.92;;;;;;;5.75;100.00;100945.09;4930998;29;20501;-90
2022/04/18 06:13:48;;;;;;;34.63;32.13;;;;;;;6.04;100.00;100952.44;4918468;29;20119;-89
2022/04/18 06:16:18;;;;;;;34.70;31.95;;;;;;;5.83;100.00;100950.34;4920364;29;20052;-90
2022/04/18 06:18:49;;;;;;;33.03;30.83;;;;;;;5.69;100.00;100951.03;4934268;29;20096;-90
2022/04/18 06:21:15;;;;;;;35.00;32.60;;;;;;;5.81;100.00;100956.75;4927542;29;20051;-90
2022/04/18 06:23:43;;;;;;;33.55;31.35;;;;;;;5.48;100.00;100955.03;4918585;29;20048;-89
2022/04/18 06:26:11;;;;;;;34.17;31.88;;;;;;;5.63;100.00;100957.81;4924755;29;20514;-91
2022/04/18 06:28:41;;;;;;;34.33;32.05;;;;;;;5.49;100.00;100955.84;4922485;29;20059;-90
2022/04/18 06:31:08;;;;;;;33.25;31.05;;;;;;;5.65;100.00;100965.53;4926467;29;20048;-90
2022/04/18 06:33:42;;;;;;;35.08;32.85;;;;;;;6.17;100.00;100959.81;4917297;29;20084;-90
2022/04/18 06:36:08;;;;;;;35.88;33.60;;;;;;;5.81;100.00;100949.69;4934135;29;20059;-90
2022/04/18 06:38:36;;;;;;;32.92;30.83;;;;;;;6.10;100.00;100957.03;4927909;29;20056;-90
2022/04/18 06:41:03;;;;;;;35.35;33.00;;;;;;;5.79;100.00;100959.56;4919299;29;20052;-90
2022/04/18 06:43:30;;;;;;;38.78;36.30;;;;;;;6.17;100.00;100954.53;4925311;29;20050;-90
2022/04/18 06:45:57;;;;;;;36.63;34.53;;;;;;;6.03;100.00;100952.63;4923127;29;20048;-90
2022/04/18 06:48:25;;;;;;;35.75;33.53;;;;;;;5.96;100.00;100957.72;4898445;29;20054;-90
2022/04/18 06:50:58;;;;;;;35.42;33.22;;;;;;;6.06;100.00;100962.84;4927676;29;20051;-90
2022/04/18 06:53:25;;;;;;;34.83;32.63;;;;;;;6.10;100.00;100956.22;4930563;29;20106;-90
2022/04/18 06:58:39;;;;;;;32.25;30.15;;;;;;;5.86;100.00;100963.19;4927291;29;20674;-90
2022/04/18 07:01:07;;;;;;;30.17;28.27;;;;;;;6.52;100.00;100970.88;4923669;28;20087;-89
2022/04/18 07:03:35;;;;;;;30.17;28.38;;;;;;;6.42;100.00;100961.34;4935697;29;20058;-89
2022/04/18 07:06:04;;;;;;;31.23;29.33;;;;;;;6.71;100.00;100964.31;4888353;29;20059;-90
2022/04/18 07:08:32;;;;;;;32.92;30.83;;;;;;;6.72;100.00;100961.53;4925838;29;20060;-90
2022/04/18 07:10:59;;;;;;;30.95;28.70;;;;;;;6.91;100.00;100956.78;4919641;29;20052;-89
2022/04/18 07:13:26;;;;;;;27.50;25.95;;;;;;;7.22;100.00;100956.69;4923770;29;20048;-90
2022/04/18 07:15:54;;;;;;;28.63;26.92;;;;;;;6.92;100.00;100950.50;4928810;29;20052;-89
2022/04/18 07:18:25;;;;;;;29.40;27.70;;;;;;;6.95;100.00;100950.97;4931567;29;20047;-90
2022/04/18 07:20:51;;;;;;;30.90;29.17;;;;;;;7.00;100.00;100951.25;4931342;29;20059;-90
2022/04/18 07:23:30;;;;;;;29.00;26.90;;;;;;;7.17;100.00;100945.84;4924000;29;20058;-89
2022/04/18 07:25:57;;;;;;;28.80;27.15;;;;;;;7.15;100.00;100948.69;4923495;29;20490;-90
2022/04/18 07:28:24;;;;;;;29.63;27.88;;;;;;;7.09;100.00;100952.03;4932508;29;20425;-89
2022/04/18 07:30:51;;;;;;;29.45;27.75;;;;;;;7.27;100.00;100949.88;4927686;29;20059;-90
2022/04/18 07:33:18;;;;;;;28.10;26.50;;;;;;;7.51;100.00;100950.69;4920073;29;20426;-89
2022/04/18 07:35:45;;;;;;;28.73;27.17;;;;;;;7.34;100.00;100945.53;4928674;29;20066;-90
2022/04/18 07:41:05;;;;;;;29.13;27.52;;;;;;;7.32;100.00;100949.34;4928195;29;20201;-90
2022/04/18 07:43:37;;;;;;;29.02;27.45;;;;;;;7.40;100.00;100937.88;4931738;29;20044;-90
2022/04/18 07:46:05;;;;;;;30.73;29.02;;;;;;;7.32;100.00;100946.69;4930827;29;20051;-90
2022/04/18 07:48:35;;;;;;;29.58;27.98;;;;;;;7.47;100.00;100938.81;4923098;29;20056;-90
2022/04/18 07:53:47;;;;;;;30.80;28.98;;;;;;;7.46;100.00;100942.47;4924315;29;20183;-89
2022/04/18 07:56:23;;;;;;;30.70;28.92;;;;;;;7.63;100.00;100943.13;4926309;29;20047;-89
2022/04/18 07:58:53;;;;;;;29.33;27.83;;;;;;;7.51;100.00;100943.56;4925850;29;20055;-90
2022/04/18 08:01:22;;;;;;;31.10;29.33;;;;;;;7.33;100.00;100938.59;4928885;28;20062;-90
2022/04/18 08:03:50;;;;;;;31.50;29.33;;;;;;;7.35;100.00;100941.06;4898989;29;20053;-90
2022/04/18 08:06:18;;;;;;;30.08;28.48;;;;;;;7.74;100.00;100940.00;4929389;29;20048;-90
2022/04/18 08:08:45;;;;;;;31.40;29.75;;;;;;;7.92;100.00;100945.75;4928045;29;20107;-90
2022/04/18 08:11:14;;;;;;;31.83;30.13;;;;;;;8.24;100.00;100941.09;4926149;29;20070;-90
2022/04/18 08:13:47;;;;;;;30.55;28.75;;;;;;;8.40;100.00;100938.25;4920700;29;20048;-90
2022/04/18 08:16:37;;;;;;;31.23;29.55;;;;;;;8.46;100.00;100944.63;4916791;29;20494;-90
2022/04/18 08:19:05;;;;;;;31.77;30.17;;;;;;;7.98;100.00;100938.94;4902300;29;20494;-90
2022/04/18 08:21:35;;;;;;;32.33;30.50;;;;;;;8.19;100.00;100948.75;4920659;29;20494;-89
2022/04/18 08:24:05;;;;;;;30.85;29.25;;;;;;;8.47;100.00;100949.75;4924213;29;20052;-89
2022/04/18 08:26:36;;;;;;;31.90;30.10;;;;;;;8.66;100.00;100950.97;4920662;29;20050;-90
2022/04/18 08:29:07;;;;;;;29.88;28.38;;;;;;;8.68;100.00;100946.34;4925009;29;20052;-89
2022/04/18 08:31:35;;;;;;;31.25;29.75;;;;;;;8.74;100.00;100942.09;4922191;29;20052;-90
2022/04/18 08:34:03;;;;;;;33.42;31.73;;;;;;;8.74;100.00;100939.44;4932448;29;20048;-90
2022/04/18 08:36:32;;;;;;;32.85;31.17;;;;;;;8.69;100.00;100936.56;4924135;29;20421;-90
2022/04/18 08:38:59;;;;;;;31.83;30.33;;;;;;;8.87;100.00;100930.81;4918240;29;20075;-90
2022/04/18 08:41:53;;;;;;;32.58;30.60;;;;;;;8.94;100.00;100934.34;4922867;29;20044;-90
2022/04/18 08:44:30;;;;;;;32.38;30.55;;;;;;;9.34;100.00;100932.84;4921356;29;20048;-90
2022/04/18 08:47:00;;;;;;;31.40;29.90;;;;;;;9.57;100.00;100937.91;4915370;29;20048;-89
2022/04/18 08:55:03;;;;;;;33.40;31.60;;;;;;;9.35;100.00;100934.50;4926960;29;20552;-90
2022/04/18 08:57:31;;;;;;;32.58;30.98;;;;;;;9.48;100.00;100936.41;4910759;29;20437;-90
2022/04/18 09:00:00;;;;;;;34.05;32.45;;;;;;;9.68;100.00;100939.19;4926286;29;20040;-90
2022/04/18 09:02:32;;;;;;;32.20;30.63;;;;;;;9.42;100.00;100936.38;4928911;29;20441;-90
2022/04/18 09:05:00;;;;;;;31.38;29.77;;;;;;;9.23;100.00;100935.19;4930934;29;20054;-89
2022/04/18 09:07:28;;;;;;;32.63;30.92;;;;;;;9.32;100.00;100942.84;4928960;29;20046;-90
2022/04/18 09:09:58;;;;;;;34.17;32.42;;;;;;;8.97;100.00;100944.56;4920875;29;20466;-90
2022/04/18 09:12:29;;;;;;;33.22;31.60;;;;;;;8.50;100.00;100940.59;4915690;29;20048;-90
2022/04/18 09:14:57;;;;;;;31.98;30.15;;;;;;;8.69;100.00;100945.31;4927770;29;20048;-90
2022/04/18 09:17:39;;;;;;;31.20;29.70;;;;;;;8.68;100.00;100951.63;4926817;29;20091;-90
2022/04/18 09:20:11;;;;;;;30.45;28.95;;;;;;;8.74;100.00;100936.78;4926662;29;20051;-90
2022/04/18 09:22:42;;;;;;;33.08;31.08;;;;;;;8.41;100.00;100942.56;4925857;29;20059;-89
2022/04/18 09:25:17;;;;;;;33.13;31.43;;;;;;;8.46;100.00;100945.47;4926164;29;20056;-90
2022/04/18 09:28:02;;;;;;;32.25;30.17;;;;;;;8.78;100.00;100947.84;4926007;29;20314;-90
2022/04/18 09:30:33;;;;;;;31.17;29.67;;;;;;;9.13;100.00;100951.44;4926886;29;20079;-90
2022/04/18 09:33:05;;;;;;;33.10;31.30;;;;;;;8.43;100.00;100953.78;4918527;29;20481;-90
2022/04/18 09:35:41;;;;;;;32.38;30.67;;;;;;;8.70;100.00;100943.47;4923284;29;20506;-90
2022/04/18 09:38:12;;;;;;;34.33;32.53;;;;;;;8.43;100.00;100951.13;4934849;29;20110;-90
2022/04/18 09:40:39;;;;;;;33.20;31.50;;;;;;;8.71;100.00;100953.91;4930658;29;20139;-89
2022/04/18 09:43:09;;;;;;;31.75;30.25;;;;;;;8.23;100.00;100950.06;4925265;29;20510;-91
2022/04/18 09:45:37;;;;;;;35.35;33.13;;;;;;;8.07;100.00;100947.59;4923449;29;20115;-90
2022/04/18 09:48:27;;;;;;;35.45;33.15;;;;;;;8.12;100.00;100945.22;4930130;29;20075;-91
2022/04/18 09:51:07;;;;;;;31.92;30.23;;;;;;;8.40;100.00;100956.78;4929208;29;20531;-90
2022/04/18 09:53:44;;;;;;;32.22;30.60;;;;;;;8.33;100.00;100947.94;4933395;29;20078;-89
2022/04/18 09:56:15;;;;;;;35.63;33.85;;;;;;;8.03;100.00;100947.13;4928274;29;20056;-90
2022/04/18 09:58:46;;;;;;;33.92;32.08;;;;;;;8.11;100.00;100946.22;4925213;29;20107;-90
2022/04/18 10:01:14;;;;;;;32.58;30.77;;;;;;;8.00;100.00;100940.38;4920409;29;20086;-90
2022/04/18 10:03:44;;;;;;;33.45;31.60;;;;;;;8.10;100.00;100940.09;4934386;29;20509;-89
2022/04/18 10:06:12;;;;;;;33.85;32.08;;;;;;;8.51;100.00;100944.09;4922121;29;20052;-90
2022/04/18 10:08:43;;;;;;;32.20;30.40;;;;;;;8.54;100.00;100939.25;4933209;29;20052;-90
2022/04/18 10:11:12;;;;;;;35.38;33.40;;;;;;;8.35;100.00;100931.84;4922200;29;20052;-90
2022/04/18 10:13:39;;;;;;;34.40;32.50;;;;;;;8.49;100.00;100942.44;4932383;29;20500;-90
2022/04/18 10:16:14;;;;;;;32.65;30.92;;;;;;;8.67;100.00;100934.06;4922611;29;20056;-91
2022/04/18 10:18:58;;;;;;;33.13;31.30;;;;;;;8.90;100.00;100943.69;4934316;29;20067;-90
2022/04/18 10:21:28;;;;;;;33.53;31.83;;;;;;;8.91;100.00;100929.44;4932793;29;20052;-90
2022/04/18 10:24:31;;;;;;;32.53;30.92;;;;;;;9.25;100.00;100941.13;4923469;29;20059;-90
2022/04/18 10:27:22;;;;;;;;;;;;;;;9.31;100.00;100927.91;4895999;29;20056;-90
2022/04/18 10:30:07;;;;;;;35.70;33.72;;;;;;;9.59;100.00;100930.59;4925417;29;19970;-90
2022/04/18 10:32:37;;;;;;;34.13;32.42;;;;;;;9.73;100.00;100926.16;4926481;29;20047;-90
2022/04/18 10:35:15;;;;;;;35.00;33.13;;;;;;;9.87;100.00;100935.03;4929175;29;20050;-89
2022/04/18 10:38:06;;;;;;;36.17;33.90;;;;;;;9.49;99.35;100934.59;4925055;29;20056;-89
2022/04/18 10:40:40;;;;;;;34.08;32.28;;;;;;;9.68;99.15;100919.81;4920181;29;20052;-90
2022/04/18 10:43:13;;;;;;;36.17;34.08;;;;;;;9.74;100.00;100921.69;4918015;29;20048;-89
2022/04/18 10:45:43;;;;;;;35.25;33.35;;;;;;;9.69;100.00;100930.25;4922851;29;20071;-90
2022/04/18 10:48:16;;;;;;;33.75;31.85;;;;;;;9.88;100.00;100925.25;4927277;29;20056;-90
2022/04/18 10:50:50;;;;;;;34.58;32.67;;;;;;;9.68;100.00;100933.06;4921577;29;20051;-90
2022/04/18 10:53:20;;;;;;;35.97;34.05;;;;;;;10.00;100.00;100921.84;4901787;29;20052;-90
2022/04/18 10:56:15;;;;;;;34.47;32.67;;;;;;;9.95;100.00;100928.75;4923243;29;20075;-90
2022/04/18 10:58:47;;;;;;;33.50;31.75;;;;;;;9.76;100.00;100924.97;4878026;29;20169;-90
2022/04/18 11:01:15;;;;;;;37.20;35.03;;;;;;;9.45;100.00;100920.09;4918353;29;20135;-90
2022/04/18 11:04:09;;;;;;;34.53;32.83;;;;;;;9.91;100.00;100916.88;4916424;29;20059;-90
2022/04/18 11:06:49;;;;;;;33.40;31.70;;;;;;;9.58;100.00;100922.81;4928720;29;20062;-90
2022/04/18 11:09:22;;;;;;;34.40;32.60;;;;;;;9.80;100.00;100913.78;4920817;29;20052;-90
2022/04/18 11:11:56;;;;;;;34.55;32.85;;;;;;;10.05;100.00;100913.28;4921628;29;20044;-90
2022/04/18 11:14:48;;;;;;;33.00;31.30;;;;;;;10.18;99.73;100916.00;4919911;29;20080;-90
2022/04/18 11:17:27;;;;;;;33.90;32.20;;;;;;;10.37;91.75;100919.75;4910962;29;20051;-89
2022/04/18 11:19:54;;;;;;;34.40;32.53;;;;;;;9.54;93.48;100914.44;4930180;29;20119;-90
2022/04/18 11:22:25;;;;;;;33.75;31.85;;;;;;;9.00;100.00;100928.28;4918667;29;20048;-90
2022/04/18 11:25:01;;;;;;;35.15;33.15;;;;;;;9.93;100.00;100909.56;4932067;29;20564;-90
2022/04/18 11:27:36;;;;;;;35.42;33.33;;;;;;;10.06;100.00;100914.91;4906544;29;20043;-90
2022/04/18 11:30:32;;;;;;;33.80;32.10;;;;;;;10.11;93.71;100906.38;4926534;29;20048;-89
2022/04/18 11:33:04;;;;;;;34.67;32.88;;;;;;;10.59;93.56;100914.28;4920863;29;20060;-91
2022/04/18 11:35:31;;;;;;;35.00;33.20;;;;;;;10.02;93.44;100900.41;4933174;29;20056;-90
2022/04/18 11:38:08;;;;;;;34.53;32.72;;;;;;;9.99;92.55;100909.59;4929070;29;20043;-89
2022/04/18 11:40:45;;;;;;;35.13;33.22;;;;;;;10.15;95.15;100899.66;4921026;29;20055;-89
2022/04/18 11:43:16;;;;;;;35.17;33.38;;;;;;;10.74;93.04;100904.31;4913666;29;20084;-90
2022/04/18 11:45:45;;;;;;;34.40;32.50;;;;;;;10.31;96.61;100894.00;4922926;29;20521;-90
2022/04/18 11:48:13;;;;;;;35.55;33.75;;;;;;;10.65;99.18;100895.75;4926431;29;20074;-90
2022/04/18 11:50:43;;;;;;;35.15;33.15;;;;;;;10.31;96.26;100900.13;4919433;29;20054;-90